createdAt,value
2022-10-14T00:00:30.315Z,5.50
2022-10-14T00:01:30.368Z,5.00
2022-10-14T00:02:30.247Z,5.10
2022-10-14T00:03:30.234Z,4.70
2022-10-14T00:04:30.326Z,4.90
2022-10-14T00:05:30.236Z,4.80
2022-10-14T00:06:30.194Z,4.40
2022-10-14T00:07:30.239Z,4.80
2022-10-14T00:08:30.169Z,4.40
2022-10-14T00:09:30.247Z,4.00
2022-10-14T00:10:30.143Z,4.30
2022-10-14T00:11:30.127Z,4.20
2022-10-14T00:12:30.140Z,4.20
2022-10-14T00:13:30.123Z,4.70
2022-10-14T00:14:30.122Z,4.30
2022-10-14T00:15:30.082Z,4.10
2022-10-14T00:16:30.076Z,3.50
2022-10-14T00:17:30.106Z,4.00
2022-10-14T00:18:30.069Z,3.90
2022-10-14T00:19:30.050Z,4.10
2022-10-14T00:20:30.015Z,4.20
2022-10-14T00:21:30.024Z,4.10
2022-10-14T00:22:30.000Z,3.50
2022-10-14T00:23:30.013Z,3.80
2022-10-14T00:24:30.031Z,4.40
2022-10-14T00:25:29.955Z,3.80
2022-10-14T00:26:29.939Z,3.70
2022-10-14T00:27:29.923Z,3.70
2022-10-14T00:28:29.949Z,3.70
2022-10-14T00:29:29.937Z,4.20
2022-10-14T00:30:29.860Z,3.80
2022-10-14T00:31:29.901Z,4.00
2022-10-14T00:32:29.839Z,3.40
2022-10-14T00:33:29.860Z,3.50
2022-10-14T00:34:30.712Z,3.50
2022-10-14T00:35:29.858Z,3.70
2022-10-14T00:36:29.785Z,3.60
2022-10-14T00:37:29.791Z,3.80
2022-10-14T00:38:29.859Z,3.60
2022-10-14T00:39:29.783Z,3.70
2022-10-14T00:40:29.749Z,3.60
2022-10-14T00:41:29.715Z,3.60
2022-10-14T00:42:29.721Z,4.20
2022-10-14T00:43:29.731Z,4.30
2022-10-14T00:44:29.724Z,4.00
2022-10-14T00:45:29.675Z,3.90
2022-10-14T00:46:30.734Z,4.30
2022-10-14T00:47:29.635Z,4.20
2022-10-14T00:48:29.611Z,4.00
2022-10-14T00:49:29.611Z,4.30
2022-10-14T00:50:29.598Z,4.20
2022-10-14T00:51:29.642Z,4.30
2022-10-14T00:52:29.610Z,3.60
2022-10-14T00:53:29.554Z,4.10
2022-10-14T00:54:29.553Z,4.00
2022-10-14T00:55:29.554Z,3.90
2022-10-14T00:56:29.520Z,3.90
2022-10-14T00:57:29.495Z,4.00
2022-10-14T00:58:29.558Z,3.80
2022-10-14T00:59:29.471Z,4.00
2022-10-14T01:00:29.524Z,3.40
2022-10-14T01:01:29.442Z,3.90
2022-10-14T01:02:29.426Z,3.90
2022-10-14T01:03:29.441Z,3.60
2022-10-14T01:04:29.402Z,4.00
2022-10-14T01:05:29.459Z,3.40
2022-10-14T01:06:29.394Z,3.50
2022-10-14T01:07:29.360Z,3.70
2022-10-14T01:08:29.407Z,3.50
2022-10-14T01:09:29.361Z,3.60
2022-10-14T01:10:29.362Z,3.20
2022-10-14T01:11:29.297Z,3.20
2022-10-14T01:12:30.084Z,3.10
2022-10-14T01:13:29.287Z,3.00
2022-10-14T01:14:29.267Z,2.80
2022-10-14T01:15:29.271Z,2.80
2022-10-14T01:16:29.334Z,2.60
2022-10-14T01:17:29.261Z,2.90
2022-10-14T01:18:29.234Z,2.60
2022-10-14T01:19:29.201Z,2.10
2022-10-14T01:20:29.196Z,2.10
2022-10-14T01:21:29.173Z,2.30
2022-10-14T01:22:29.415Z,2.60
2022-10-14T01:23:29.174Z,1.80
2022-10-14T01:24:29.133Z,1.90
2022-10-14T01:25:29.131Z,2.20
2022-10-14T01:26:29.112Z,2.40
2022-10-14T01:27:29.101Z,1.80
2022-10-14T01:28:29.118Z,2.20
2022-10-14T01:29:29.087Z,1.40
2022-10-14T01:30:29.074Z,1.90
2022-10-14T01:31:29.046Z,1.90
2022-10-14T01:32:29.045Z,1.50
2022-10-14T01:33:29.023Z,1.40
2022-10-14T01:34:29.057Z,1.60
2022-10-14T01:35:29.059Z,1.50
2022-10-14T01:36:28.992Z,1.40
2022-10-14T01:37:28.988Z,1.30
2022-10-14T01:38:28.956Z,1.40
2022-10-14T01:39:28.944Z,1.30
2022-10-14T01:40:28.999Z,1.20
2022-10-14T01:41:28.951Z,1.30
2022-10-14T01:42:28.905Z,1.30
2022-10-14T01:43:28.886Z,1.20
2022-10-14T01:44:28.896Z,1.50
2022-10-14T01:45:28.877Z,1.30
2022-10-14T01:46:28.893Z,1.00
2022-10-14T01:47:28.908Z,1.40
2022-10-14T01:48:28.841Z,1.20
2022-10-14T01:49:28.848Z,1.30
2022-10-14T01:50:28.789Z,1.00
2022-10-14T01:51:28.783Z,1.30
2022-10-14T01:52:28.782Z,1.30
2022-10-14T01:53:28.755Z,1.30
2022-10-14T01:54:28.769Z,1.20
2022-10-14T01:55:28.728Z,1.40
2022-10-14T01:56:28.713Z,1.40
2022-10-14T01:57:28.718Z,1.40
2022-10-14T01:58:28.735Z,1.20
2022-10-14T01:59:28.690Z,1.20
2022-10-14T02:00:28.661Z,1.50
2022-10-14T02:01:28.700Z,1.30
2022-10-14T02:02:28.654Z,1.20
2022-10-14T02:03:28.631Z,1.40
2022-10-14T02:04:28.628Z,1.40
2022-10-14T02:05:28.612Z,1.20
2022-10-14T02:06:28.590Z,1.30
2022-10-14T02:07:28.598Z,1.30
2022-10-14T02:08:28.559Z,1.40
2022-10-14T02:09:28.562Z,1.30
2022-10-14T02:10:28.528Z,1.50
2022-10-14T02:11:28.527Z,1.30
2022-10-14T02:12:28.668Z,1.30
2022-10-14T02:13:28.581Z,1.30
2022-10-14T02:14:28.571Z,1.60
2022-10-14T02:15:28.537Z,1.50
2022-10-14T02:16:28.461Z,1.40
2022-10-14T02:17:28.455Z,1.40
2022-10-14T02:18:28.510Z,1.50
2022-10-14T02:19:28.429Z,1.60
2022-10-14T02:20:28.397Z,1.60
2022-10-14T02:21:28.406Z,1.50
2022-10-14T02:22:28.392Z,1.60
2022-10-14T02:23:28.441Z,1.60
2022-10-14T02:24:28.394Z,1.60
2022-10-14T02:25:28.400Z,1.90
2022-10-14T02:26:28.411Z,1.50
2022-10-14T02:27:28.319Z,1.60
2022-10-14T02:28:28.383Z,1.50
2022-10-14T02:29:28.335Z,1.70
2022-10-14T02:30:28.280Z,1.70
2022-10-14T02:31:28.264Z,1.60
2022-10-14T02:32:28.335Z,1.60
2022-10-14T02:33:28.329Z,1.60
2022-10-14T02:34:28.297Z,1.80
2022-10-14T02:35:28.196Z,1.90
2022-10-14T02:36:28.236Z,1.60
2022-10-14T02:37:28.235Z,1.70
2022-10-14T02:38:28.196Z,1.60
2022-10-14T02:39:28.243Z,1.70
2022-10-14T02:40:28.148Z,1.70
2022-10-14T02:41:28.212Z,1.60
2022-10-14T02:42:28.342Z,2.10
2022-10-14T02:43:28.120Z,1.80
2022-10-14T02:44:28.146Z,1.30
2022-10-14T02:45:28.107Z,1.60
2022-10-14T02:46:28.110Z,1.70
2022-10-14T02:47:28.052Z,1.50
2022-10-14T02:48:28.064Z,1.50
2022-10-14T02:49:28.066Z,1.60
2022-10-14T02:50:28.071Z,1.70
2022-10-14T02:51:28.015Z,1.60
2022-10-14T02:52:28.021Z,1.60
2022-10-14T02:53:28.041Z,1.60
2022-10-14T02:54:28.001Z,1.50
2022-10-14T02:55:28.021Z,1.70
2022-10-14T02:56:27.948Z,1.50
2022-10-14T02:57:27.952Z,1.60
2022-10-14T02:58:27.961Z,1.80
2022-10-14T02:59:27.932Z,1.80
2022-10-14T03:00:27.939Z,1.70
2022-10-14T03:01:27.995Z,2.00
2022-10-14T03:02:27.886Z,1.60
2022-10-14T03:03:27.863Z,1.70
2022-10-14T03:04:27.879Z,1.70
2022-10-14T03:05:27.865Z,1.70
2022-10-14T03:06:27.872Z,1.60
2022-10-14T03:07:27.845Z,1.90
2022-10-14T03:08:27.849Z,1.90
2022-10-14T03:09:34.432Z,1.80
2022-10-14T03:10:29.502Z,1.80
2022-10-14T03:11:27.735Z,2.00
2022-10-14T03:12:27.721Z,2.00
2022-10-14T03:13:27.732Z,2.00
2022-10-14T03:14:27.733Z,2.20
2022-10-14T03:15:27.686Z,1.90
2022-10-14T03:16:27.741Z,2.20
2022-10-14T03:17:27.685Z,2.10
2022-10-14T03:18:27.649Z,1.80
2022-10-14T03:19:27.635Z,2.20
2022-10-14T03:20:27.622Z,2.30
2022-10-14T03:21:27.621Z,2.10
2022-10-14T03:22:27.619Z,2.00
2022-10-14T03:23:27.584Z,2.20
2022-10-14T03:24:27.585Z,2.40
2022-10-14T03:25:27.559Z,2.20
2022-10-14T03:26:27.537Z,2.10
2022-10-14T03:27:27.541Z,2.60
2022-10-14T03:28:27.547Z,2.40
2022-10-14T03:29:27.560Z,2.40
2022-10-14T03:30:27.499Z,2.50
2022-10-14T03:31:27.491Z,2.50
2022-10-14T03:32:27.462Z,2.80
2022-10-14T03:33:29.837Z,2.50
2022-10-14T03:34:27.434Z,2.70
2022-10-14T03:35:27.418Z,2.20
2022-10-14T03:36:27.426Z,2.20
2022-10-14T03:37:27.403Z,2.20
2022-10-14T03:38:27.378Z,2.20
2022-10-14T03:39:27.397Z,2.40
2022-10-14T03:40:27.358Z,2.50
2022-10-14T03:41:27.367Z,2.60
2022-10-14T03:42:27.356Z,2.90
2022-10-14T03:43:27.312Z,2.60
2022-10-14T03:44:27.328Z,2.90
2022-10-14T03:45:27.296Z,2.50
2022-10-14T03:46:27.290Z,2.60
2022-10-14T03:47:27.256Z,2.30
2022-10-14T03:48:27.330Z,2.20
2022-10-14T03:49:27.229Z,2.50
2022-10-14T03:50:27.286Z,2.70
2022-10-14T03:51:27.230Z,2.40
2022-10-14T03:52:27.246Z,2.70
2022-10-14T03:53:27.174Z,2.90
2022-10-14T03:54:27.172Z,2.70
2022-10-14T03:55:27.209Z,2.30
2022-10-14T03:56:27.140Z,2.20
2022-10-14T03:57:27.126Z,2.30
2022-10-14T03:58:27.142Z,2.20
2022-10-14T03:59:27.106Z,2.20
2022-10-14T04:00:27.108Z,2.50
2022-10-14T04:01:27.147Z,2.40
2022-10-14T04:02:27.057Z,2.30
2022-10-14T04:03:27.073Z,2.50
2022-10-14T04:04:27.035Z,2.30
2022-10-14T04:05:27.022Z,2.40
2022-10-14T04:06:27.042Z,2.80
2022-10-14T04:07:26.986Z,2.40
2022-10-14T04:08:27.005Z,2.20
2022-10-14T04:09:27.016Z,2.10
2022-10-14T04:10:27.002Z,2.10
2022-10-14T04:11:26.942Z,2.20
2022-10-14T04:12:26.923Z,1.90
2022-10-14T04:13:26.907Z,1.90
2022-10-14T04:14:26.914Z,2.20
2022-10-14T04:15:26.883Z,2.00
2022-10-14T04:16:26.884Z,2.10
2022-10-14T04:17:26.864Z,2.10
2022-10-14T04:18:26.845Z,1.90
2022-10-14T04:19:26.850Z,2.10
2022-10-14T04:20:26.823Z,2.30
2022-10-14T04:21:26.812Z,2.10
2022-10-14T04:22:26.820Z,2.00
2022-10-14T04:23:26.800Z,1.90
2022-10-14T04:24:26.799Z,2.20
2022-10-14T04:25:26.772Z,2.10
2022-10-14T04:26:26.774Z,2.20
2022-10-14T04:27:26.760Z,1.90
2022-10-14T04:28:26.832Z,2.30
2022-10-14T04:29:26.763Z,2.10
2022-10-14T04:30:26.741Z,2.00
2022-10-14T04:31:26.668Z,2.10
2022-10-14T04:32:26.670Z,2.30
2022-10-14T04:33:26.666Z,2.30
2022-10-14T04:34:26.632Z,2.10
2022-10-14T04:35:26.621Z,2.40
2022-10-14T04:36:26.621Z,2.10
2022-10-14T04:37:26.603Z,2.30
2022-10-14T04:38:26.603Z,1.90
2022-10-14T04:39:26.587Z,2.20
2022-10-14T04:40:26.560Z,1.90
2022-10-14T04:41:26.548Z,2.30
2022-10-14T04:42:26.551Z,2.30
2022-10-14T04:43:26.518Z,2.40
2022-10-14T04:44:26.504Z,2.30
2022-10-14T04:45:26.497Z,1.80
2022-10-14T04:46:26.477Z,2.10
2022-10-14T04:47:26.488Z,2.20
2022-10-14T04:48:26.458Z,1.90
2022-10-14T04:49:26.443Z,2.20
2022-10-14T04:50:26.426Z,2.30
2022-10-14T04:51:26.465Z,2.10
2022-10-14T04:52:26.433Z,2.30
2022-10-14T04:53:26.392Z,2.50
2022-10-14T04:54:26.379Z,2.30
2022-10-14T04:55:26.375Z,2.00
2022-10-14T04:56:26.364Z,2.60
2022-10-14T04:57:26.402Z,2.20
2022-10-14T04:58:26.340Z,2.40
2022-10-14T04:59:26.333Z,2.30
2022-10-14T05:00:26.298Z,2.30
2022-10-14T05:01:29.145Z,2.30
2022-10-14T05:02:26.292Z,2.30
2022-10-14T05:03:26.276Z,2.60
2022-10-14T05:04:26.251Z,2.30
2022-10-14T05:05:26.276Z,2.40
2022-10-14T05:06:26.215Z,2.20
2022-10-14T05:07:26.227Z,2.10
2022-10-14T05:08:26.194Z,1.90
2022-10-14T05:09:26.183Z,2.40
2022-10-14T05:10:26.258Z,2.40
2022-10-14T05:11:26.144Z,1.80
2022-10-14T05:12:26.140Z,2.20
2022-10-14T05:13:26.145Z,2.40
2022-10-14T05:14:26.138Z,2.20
2022-10-14T05:15:26.097Z,2.10
2022-10-14T05:16:26.136Z,2.30
2022-10-14T05:17:26.070Z,2.40
2022-10-14T05:18:26.069Z,2.60
2022-10-14T05:19:26.045Z,2.40
2022-10-14T05:20:26.028Z,3.10
2022-10-14T05:21:26.014Z,6.30
2022-10-14T05:22:26.025Z,2.60
2022-10-14T05:23:25.996Z,3.20
2022-10-14T05:24:25.974Z,2.30
2022-10-14T05:25:25.959Z,2.40
2022-10-14T05:26:25.950Z,2.40
2022-10-14T05:27:25.932Z,2.20
2022-10-14T05:28:25.996Z,2.30
2022-10-14T05:29:25.910Z,2.40
2022-10-14T05:30:28.623Z,2.00
2022-10-14T05:31:25.914Z,2.50
2022-10-14T05:32:25.877Z,2.70
2022-10-14T05:33:25.854Z,2.10
2022-10-14T05:34:25.923Z,2.40
2022-10-14T05:35:46.702Z,2.40
2022-10-14T05:36:25.817Z,2.40
2022-10-14T05:37:25.795Z,2.50
2022-10-14T05:38:25.838Z,2.50
2022-10-14T05:39:25.822Z,2.30
2022-10-14T05:40:25.766Z,2.30
2022-10-14T05:41:25.753Z,2.00
2022-10-14T05:42:25.744Z,2.50
2022-10-14T05:43:31.745Z,2.20
2022-10-14T05:44:25.714Z,2.30
2022-10-14T05:45:25.706Z,2.70
2022-10-14T05:46:25.684Z,2.20
2022-10-14T05:47:25.814Z,2.60
2022-10-14T05:48:25.679Z,2.10
2022-10-14T05:49:25.692Z,2.10
2022-10-14T05:50:25.664Z,2.50
2022-10-14T05:51:25.637Z,2.40
2022-10-14T05:52:25.642Z,2.70
2022-10-14T05:53:25.617Z,2.30
2022-10-14T05:54:25.602Z,2.40
2022-10-14T05:55:25.563Z,2.50
2022-10-14T05:56:25.565Z,2.30
2022-10-14T05:57:25.535Z,2.50
2022-10-14T05:58:25.575Z,2.40
2022-10-14T05:59:25.535Z,2.70
2022-10-14T06:00:26.022Z,2.50
2022-10-14T06:01:25.584Z,2.20
2022-10-14T06:02:25.500Z,3.10
2022-10-14T06:03:25.525Z,2.40
2022-10-14T06:04:25.470Z,2.50
2022-10-14T06:05:25.444Z,2.70
2022-10-14T06:06:28.991Z,2.80
2022-10-14T06:07:25.426Z,2.50
2022-10-14T06:08:25.436Z,2.70
2022-10-14T06:09:25.406Z,2.60
2022-10-14T06:10:25.397Z,3.20
2022-10-14T06:11:25.387Z,3.00
2022-10-14T06:12:25.359Z,2.80
2022-10-14T06:13:25.332Z,2.90
2022-10-14T06:14:25.344Z,2.20
2022-10-14T06:15:25.340Z,2.70
2022-10-14T06:16:25.297Z,2.40
2022-10-14T06:17:25.279Z,2.50
2022-10-14T06:18:25.278Z,2.50
2022-10-14T06:19:25.289Z,2.70
2022-10-14T06:20:25.258Z,2.30
2022-10-14T06:21:25.265Z,2.20
2022-10-14T06:22:25.237Z,2.60
2022-10-14T06:23:25.226Z,2.40
2022-10-14T06:24:25.193Z,2.60
2022-10-14T06:25:25.184Z,2.50
2022-10-14T06:26:25.174Z,1.80
2022-10-14T06:27:25.185Z,2.10
2022-10-14T06:28:25.323Z,2.50
2022-10-14T06:29:25.126Z,2.50
2022-10-14T06:30:25.213Z,2.70
2022-10-14T06:31:29.848Z,2.50
2022-10-14T06:32:25.261Z,2.30
2022-10-14T06:33:25.102Z,2.50
2022-10-14T06:34:25.099Z,2.20
2022-10-14T06:35:25.052Z,2.50
2022-10-14T06:36:25.051Z,2.80
2022-10-14T06:37:25.083Z,2.40
2022-10-14T06:38:25.022Z,2.60
2022-10-14T06:39:24.997Z,2.10
2022-10-14T06:40:25.047Z,2.30
2022-10-14T06:41:25.024Z,2.10
2022-10-14T06:42:25.269Z,2.90
2022-10-14T06:43:25.010Z,2.90
2022-10-14T06:44:24.931Z,2.50
2022-10-14T06:45:24.944Z,2.60
2022-10-14T06:46:24.906Z,2.30
2022-10-14T06:47:24.896Z,2.60
2022-10-14T06:48:24.914Z,2.50
2022-10-14T06:49:24.944Z,2.80
2022-10-14T06:50:24.920Z,2.30
2022-10-14T06:51:24.862Z,2.40
2022-10-14T06:52:24.999Z,2.30
2022-10-14T06:53:24.823Z,2.40
2022-10-14T06:54:24.801Z,2.30
2022-10-14T06:55:24.842Z,2.30
2022-10-14T06:56:24.803Z,2.10
2022-10-14T06:57:24.769Z,2.20
2022-10-14T06:58:24.765Z,2.50
2022-10-14T06:59:24.743Z,2.50
2022-10-14T07:00:24.781Z,2.40
2022-10-14T07:01:24.810Z,2.50
2022-10-14T07:02:25.231Z,2.10
2022-10-14T07:03:24.690Z,2.00
2022-10-14T07:04:24.671Z,2.40
2022-10-14T07:05:24.679Z,2.70
2022-10-14T07:06:24.675Z,2.60
2022-10-14T07:07:24.634Z,2.60
2022-10-14T07:08:24.636Z,2.10
2022-10-14T07:09:24.666Z,2.30
2022-10-14T07:10:24.641Z,2.80
2022-10-14T07:11:24.593Z,2.40
2022-10-14T07:12:24.881Z,2.40
2022-10-14T07:13:24.558Z,2.70
2022-10-14T07:14:24.552Z,2.40
2022-10-14T07:15:24.537Z,2.60
2022-10-14T07:16:24.526Z,2.30
2022-10-14T07:17:24.899Z,2.00
2022-10-14T07:18:24.518Z,2.10
2022-10-14T07:19:24.482Z,1.90
2022-10-14T07:20:24.463Z,1.80
2022-10-14T07:21:24.515Z,1.70
2022-10-14T07:22:24.813Z,2.00
2022-10-14T07:23:24.431Z,1.90
2022-10-14T07:24:24.416Z,1.90
2022-10-14T07:25:24.405Z,1.60
2022-10-14T07:26:24.382Z,1.70
2022-10-14T07:27:24.661Z,1.90
2022-10-14T07:28:24.427Z,2.30
2022-10-14T07:29:24.362Z,2.00
2022-10-14T07:30:24.329Z,2.00
2022-10-14T07:31:24.335Z,1.70
2022-10-14T07:32:24.313Z,2.10
2022-10-14T07:33:24.357Z,1.30
2022-10-14T07:34:24.298Z,1.40
2022-10-14T07:35:24.269Z,1.40
2022-10-14T07:36:24.254Z,1.40
2022-10-14T07:37:24.640Z,1.40
2022-10-14T07:38:24.235Z,1.70
2022-10-14T07:39:24.217Z,1.30
2022-10-14T07:40:24.201Z,1.40
2022-10-14T07:41:24.197Z,1.40
2022-10-14T07:42:24.189Z,1.70
2022-10-14T07:43:24.171Z,1.70
2022-10-14T07:44:27.249Z,1.50
2022-10-14T07:45:24.142Z,1.50
2022-10-14T07:46:24.168Z,1.30
2022-10-14T07:47:24.320Z,1.30
2022-10-14T07:48:32.647Z,1.20
2022-10-14T07:49:24.112Z,1.50
2022-10-14T07:50:24.070Z,1.20
2022-10-14T07:51:24.073Z,1.50
2022-10-14T07:52:24.046Z,1.30
2022-10-14T07:53:24.043Z,1.10
2022-10-14T07:54:24.016Z,1.40
2022-10-14T07:55:24.033Z,0.90
2022-10-14T07:56:24.013Z,1.40
2022-10-14T07:57:24.638Z,1.30
2022-10-14T07:58:23.968Z,1.30
2022-10-14T07:59:24.007Z,1.50
2022-10-14T08:00:23.937Z,1.50
2022-10-14T08:01:23.942Z,1.10
2022-10-14T08:02:23.915Z,1.10
2022-10-14T08:03:23.933Z,0.90
2022-10-14T08:04:23.887Z,1.60
2022-10-14T08:05:37.593Z,1.10
2022-10-14T08:06:23.858Z,1.10
2022-10-14T08:07:24.219Z,1.60
2022-10-14T08:08:23.867Z,1.50
2022-10-14T08:09:23.874Z,1.20
2022-10-14T08:10:23.799Z,1.10
2022-10-14T08:11:23.805Z,1.10
2022-10-14T08:12:24.208Z,1.00
2022-10-14T08:13:23.764Z,1.10
2022-10-14T08:14:23.748Z,1.10
2022-10-14T08:15:23.782Z,1.20
2022-10-14T08:16:23.724Z,1.50
2022-10-14T08:17:23.722Z,1.10
2022-10-14T08:18:23.710Z,1.50
2022-10-14T08:19:23.687Z,1.00
2022-10-14T08:20:23.676Z,1.30
2022-10-14T08:21:23.655Z,1.10
2022-10-14T08:22:24.036Z,1.20
2022-10-14T08:23:23.623Z,1.00
2022-10-14T08:24:23.653Z,1.20
2022-10-14T08:25:23.598Z,1.60
2022-10-14T08:26:23.647Z,1.40
2022-10-14T08:27:23.568Z,1.40
2022-10-14T08:28:23.589Z,1.30
2022-10-14T08:29:23.557Z,1.40
2022-10-14T08:30:23.547Z,1.00
2022-10-14T08:31:23.544Z,1.10
2022-10-14T08:32:24.157Z,1.20
2022-10-14T08:33:23.501Z,1.00
2022-10-14T08:34:23.500Z,0.90
2022-10-14T08:35:23.477Z,0.80
2022-10-14T08:36:23.443Z,1.00
2022-10-14T08:37:23.432Z,0.80
2022-10-14T08:38:23.429Z,1.00
2022-10-14T08:39:23.418Z,0.70
2022-10-14T08:40:23.395Z,1.00
2022-10-14T08:41:23.379Z,0.90
2022-10-14T08:42:23.832Z,1.10
2022-10-14T08:43:23.352Z,1.10
2022-10-14T08:44:23.358Z,0.90
2022-10-14T08:45:23.329Z,0.90
2022-10-14T08:46:23.311Z,0.60
2022-10-14T08:47:23.306Z,0.70
2022-10-14T08:48:23.276Z,1.00
2022-10-14T08:49:23.285Z,0.90
2022-10-14T08:50:23.255Z,0.80
2022-10-14T08:51:23.238Z,0.80
2022-10-14T08:52:23.640Z,0.80
2022-10-14T08:53:23.214Z,0.70
2022-10-14T08:54:23.231Z,0.60
2022-10-14T08:55:23.219Z,0.70
2022-10-14T08:56:23.175Z,0.90
2022-10-14T08:57:23.160Z,1.10
2022-10-14T08:58:23.254Z,0.80
2022-10-14T08:59:23.152Z,0.90
2022-10-14T09:00:23.135Z,0.70
2022-10-14T09:01:23.101Z,0.50
2022-10-14T09:02:23.432Z,1.00
2022-10-14T09:03:23.097Z,1.90
2022-10-14T09:04:23.099Z,1.60
2022-10-14T09:05:23.080Z,1.30
2022-10-14T09:06:23.031Z,0.80
2022-10-14T09:07:23.034Z,0.70
2022-10-14T09:08:23.004Z,0.60
2022-10-14T09:09:22.999Z,0.70
2022-10-14T09:10:23.024Z,0.60
2022-10-14T09:11:22.968Z,0.60
2022-10-14T09:12:23.208Z,0.40
2022-10-14T09:13:22.943Z,0.60
2022-10-14T09:14:29.448Z,0.50
2022-10-14T09:15:22.935Z,0.70
2022-10-14T09:16:22.909Z,0.50
2022-10-14T09:17:22.906Z,0.80
2022-10-14T09:18:22.884Z,0.60
2022-10-14T09:19:22.865Z,0.60
2022-10-14T09:20:22.855Z,0.70
2022-10-14T09:21:34.130Z,0.80
2022-10-14T09:22:23.112Z,0.70
2022-10-14T09:23:22.829Z,0.50
2022-10-14T09:24:22.797Z,0.60
2022-10-14T09:25:22.801Z,0.40
2022-10-14T09:26:22.806Z,0.60
2022-10-14T09:27:23.048Z,0.60
2022-10-14T09:28:22.804Z,0.70
2022-10-14T09:29:22.736Z,0.60
2022-10-14T09:30:22.743Z,0.60
2022-10-14T09:31:22.844Z,0.50
2022-10-14T09:32:23.018Z,0.40
2022-10-14T09:33:22.683Z,0.50
2022-10-14T09:34:22.687Z,0.40
2022-10-14T09:35:22.675Z,0.70
2022-10-14T09:36:22.664Z,0.50
2022-10-14T09:37:22.979Z,0.50
2022-10-14T09:38:22.613Z,0.60
2022-10-14T09:39:22.604Z,0.30
2022-10-14T09:40:22.583Z,0.40
2022-10-14T09:41:22.628Z,0.40
2022-10-14T09:42:22.584Z,0.30
2022-10-14T09:43:22.549Z,0.40
2022-10-14T09:44:22.570Z,0.50
2022-10-14T09:45:22.546Z,0.60
2022-10-14T09:46:22.506Z,0.60
2022-10-14T09:47:22.718Z,0.50
2022-10-14T09:48:22.477Z,0.30
2022-10-14T09:49:22.477Z,0.30
2022-10-14T09:50:22.457Z,0.40
2022-10-14T09:51:22.439Z,0.60
2022-10-14T09:52:22.459Z,0.50
2022-10-14T09:53:22.438Z,0.20
2022-10-14T09:54:22.434Z,0.20
2022-10-14T09:55:22.413Z,0.50
2022-10-14T09:56:22.381Z,0.50
2022-10-14T09:57:22.733Z,0.30
2022-10-14T09:58:22.378Z,0.20
2022-10-14T09:59:22.349Z,0.50
2022-10-14T10:00:22.324Z,0.40
2022-10-14T10:01:22.316Z,0.30
2022-10-14T10:02:22.306Z,0.30
2022-10-14T10:03:22.297Z,0.30
2022-10-14T10:04:22.288Z,0.40
2022-10-14T10:05:22.284Z,0.40
2022-10-14T10:06:22.247Z,0.40
2022-10-14T10:07:22.672Z,0.40
2022-10-14T10:08:22.226Z,0.40
2022-10-14T10:09:22.241Z,0.40
2022-10-14T10:10:22.220Z,0.40
2022-10-14T10:11:22.203Z,0.60
2022-10-14T10:12:22.171Z,0.40
2022-10-14T10:13:22.310Z,0.60
2022-10-14T10:14:22.172Z,0.60
2022-10-14T10:15:22.135Z,0.50
2022-10-14T10:16:22.136Z,0.40
2022-10-14T10:17:22.369Z,0.50
2022-10-14T10:18:22.117Z,0.60
2022-10-14T10:19:22.084Z,0.70
2022-10-14T10:20:22.097Z,0.40
2022-10-14T10:21:22.069Z,0.40
2022-10-14T10:22:22.085Z,0.40
2022-10-14T10:23:22.054Z,0.60
2022-10-14T10:24:25.896Z,0.40
2022-10-14T10:25:22.010Z,0.30
2022-10-14T10:26:22.000Z,0.50
2022-10-14T10:27:22.342Z,0.60
2022-10-14T10:28:22.007Z,0.50
2022-10-14T10:29:21.964Z,0.50
2022-10-14T10:30:21.929Z,0.80
2022-10-14T10:31:22.114Z,0.40
2022-10-14T10:32:22.160Z,0.60
2022-10-14T10:33:21.892Z,0.30
2022-10-14T10:34:21.881Z,0.40
2022-10-14T10:35:21.865Z,0.60
2022-10-14T10:36:21.853Z,0.50
2022-10-14T10:37:22.079Z,0.50
2022-10-14T10:38:21.842Z,0.60
2022-10-14T10:39:21.820Z,0.80
2022-10-14T10:40:21.802Z,0.50
2022-10-14T10:41:21.802Z,0.40
2022-10-14T10:42:22.042Z,0.50
2022-10-14T10:43:21.783Z,0.40
2022-10-14T10:44:21.777Z,0.40
2022-10-14T10:45:21.826Z,0.70
2022-10-14T10:46:21.758Z,0.60
2022-10-14T10:47:21.774Z,1.00
2022-10-14T10:48:21.727Z,0.60
2022-10-14T10:49:21.732Z,0.20
2022-10-14T10:50:21.702Z,0.60
2022-10-14T10:51:21.712Z,0.40
2022-10-14T10:52:21.875Z,0.40
2022-10-14T10:53:21.690Z,0.40
2022-10-14T10:54:21.650Z,0.80
2022-10-14T10:55:21.667Z,1.00
2022-10-14T10:56:21.643Z,0.40
2022-10-14T10:57:21.871Z,0.60
2022-10-14T10:58:21.635Z,0.40
2022-10-14T10:59:21.598Z,0.70
2022-10-14T11:00:21.646Z,0.40
2022-10-14T11:01:21.591Z,0.40
2022-10-14T11:02:21.912Z,0.50
2022-10-14T11:03:21.545Z,0.70
2022-10-14T11:04:21.547Z,0.60
2022-10-14T11:05:21.516Z,0.40
2022-10-14T11:06:21.517Z,0.60
2022-10-14T11:07:26.947Z,0.70
2022-10-14T11:08:21.575Z,0.60
2022-10-14T11:09:21.457Z,0.50
2022-10-14T11:10:21.461Z,0.70
2022-10-14T11:11:21.424Z,0.70
2022-10-14T11:12:21.776Z,0.60
2022-10-14T11:13:21.399Z,0.50
2022-10-14T11:14:21.412Z,0.40
2022-10-14T11:15:21.373Z,0.60
2022-10-14T11:16:21.382Z,0.50
2022-10-14T11:17:21.783Z,0.50
2022-10-14T11:18:21.376Z,0.40
2022-10-14T11:19:21.346Z,0.70
2022-10-14T11:20:21.335Z,0.60
2022-10-14T11:21:21.292Z,0.80
2022-10-14T11:22:21.540Z,0.40
2022-10-14T11:23:21.275Z,0.60
2022-10-14T11:24:21.293Z,0.50
2022-10-14T11:25:21.260Z,0.50
2022-10-14T11:26:21.305Z,0.80
2022-10-14T11:27:23.995Z,0.70
2022-10-14T11:28:21.241Z,0.50
2022-10-14T11:29:21.199Z,0.30
2022-10-14T11:30:21.169Z,0.40
2022-10-14T11:31:21.177Z,0.70
2022-10-14T11:32:21.145Z,0.60
2022-10-14T11:33:21.127Z,0.70
2022-10-14T11:34:21.123Z,0.60
2022-10-14T11:35:21.108Z,0.60
2022-10-14T11:36:21.088Z,1.10
2022-10-14T11:37:21.382Z,0.60
2022-10-14T11:38:21.049Z,0.80
2022-10-14T11:39:21.058Z,0.40
2022-10-14T11:40:21.037Z,0.50
2022-10-14T11:41:21.011Z,0.60
2022-10-14T11:42:21.308Z,0.60
2022-10-14T11:43:20.983Z,1.10
2022-10-14T11:44:20.969Z,0.80
2022-10-14T11:45:21.506Z,0.50
2022-10-14T11:46:20.962Z,0.60
2022-10-14T11:47:21.299Z,0.50
2022-10-14T11:48:20.919Z,0.40
2022-10-14T11:49:20.904Z,0.50
2022-10-14T11:50:20.918Z,0.40
2022-10-14T11:51:20.882Z,0.70
2022-10-14T11:52:20.875Z,0.50
2022-10-14T11:53:20.850Z,0.40
2022-10-14T11:54:20.842Z,0.80
2022-10-14T11:55:20.833Z,0.70
2022-10-14T11:56:20.832Z,0.60
2022-10-14T11:57:21.126Z,0.60
2022-10-14T11:58:20.798Z,0.50
2022-10-14T11:59:20.778Z,0.40
2022-10-14T12:00:20.832Z,0.50
2022-10-14T12:01:20.750Z,0.50
2022-10-14T12:02:21.211Z,0.40
2022-10-14T12:03:20.719Z,0.70
2022-10-14T12:04:20.740Z,1.00
2022-10-14T12:05:20.710Z,1.00
2022-10-14T12:06:20.724Z,0.80
2022-10-14T12:07:20.685Z,1.00
2022-10-14T12:08:20.659Z,0.80
2022-10-14T12:09:20.664Z,0.70
2022-10-14T12:10:20.637Z,0.40
2022-10-14T12:11:20.641Z,0.40
2022-10-14T12:12:21.020Z,1.00
2022-10-14T12:13:20.601Z,0.60
2022-10-14T12:14:20.578Z,0.60
2022-10-14T12:15:20.691Z,0.60
2022-10-14T12:16:20.560Z,0.70
2022-10-14T12:17:21.075Z,0.90
2022-10-14T12:18:20.536Z,0.60
2022-10-14T12:19:20.534Z,0.90
2022-10-14T12:20:20.505Z,0.60
2022-10-14T12:21:20.503Z,0.60
2022-10-14T12:22:20.787Z,0.80
2022-10-14T12:23:20.502Z,0.50
2022-10-14T12:24:20.455Z,0.50
2022-10-14T12:25:20.464Z,0.70
2022-10-14T12:26:20.443Z,0.70
2022-10-14T12:27:20.409Z,0.80
2022-10-14T12:28:20.425Z,0.60
2022-10-14T12:29:20.396Z,0.50
2022-10-14T12:30:20.379Z,0.60
2022-10-14T12:31:20.384Z,0.40
2022-10-14T12:32:20.793Z,0.40
2022-10-14T12:33:23.064Z,0.60
2022-10-14T12:34:20.335Z,0.60
2022-10-14T12:35:20.314Z,0.40
2022-10-14T12:36:20.329Z,1.10
2022-10-14T12:37:20.750Z,1.00
2022-10-14T12:38:20.272Z,1.20
2022-10-14T12:39:20.289Z,0.60
2022-10-14T12:40:20.250Z,0.60
2022-10-14T12:41:20.226Z,0.50
2022-10-14T12:42:20.540Z,0.50
2022-10-14T12:43:20.214Z,0.50
2022-10-14T12:44:20.189Z,0.60
2022-10-14T12:45:20.173Z,0.80
2022-10-14T12:46:20.167Z,0.50
2022-10-14T12:47:20.635Z,0.50
2022-10-14T12:48:20.139Z,0.80
2022-10-14T12:49:20.122Z,0.60
2022-10-14T12:50:20.111Z,0.50
2022-10-14T12:51:20.107Z,0.50
2022-10-14T12:52:20.095Z,0.70
2022-10-14T12:53:20.072Z,0.70
2022-10-14T12:54:20.061Z,0.60
2022-10-14T12:55:20.058Z,0.80
2022-10-14T12:56:20.052Z,0.70
2022-10-14T12:57:20.556Z,0.60
2022-10-14T12:58:20.007Z,0.90
2022-10-14T12:59:19.995Z,0.80
2022-10-14T13:00:19.983Z,1.00
2022-10-14T13:01:20.045Z,0.90
2022-10-14T13:02:20.358Z,0.90
2022-10-14T13:03:19.952Z,0.80
2022-10-14T13:04:20.501Z,0.40
2022-10-14T13:05:19.941Z,0.70
2022-10-14T13:06:19.910Z,0.50
2022-10-14T13:07:39.771Z,0.70
2022-10-14T13:08:19.891Z,0.80
2022-10-14T13:09:19.866Z,0.50
2022-10-14T13:10:19.861Z,0.70
2022-10-14T13:11:19.840Z,0.40
2022-10-14T13:12:19.835Z,0.60
2022-10-14T13:13:19.933Z,0.60
2022-10-14T13:14:19.809Z,0.50
2022-10-14T13:15:19.791Z,0.50
2022-10-14T13:16:19.783Z,0.70
2022-10-14T13:17:19.762Z,0.60
2022-10-14T13:18:19.778Z,0.80